Geer, VA

3:02 AM EDT on August 17, 2017 (GMT -0400)
Little Edge Farm - 2.1 Miles WNW of | | Change Station

Elev 783 ft 38.31 °N, 78.48 °W | Updated 7 seconds ago

Partly Cloudy
Partly Cloudy
69.0 °F
Feels Like 69.0 °F
N
3.0
Wind Variable Wind from WNW
Gusts 3.0 mph

Today
High -- | Low -- °F
--% Chance of Precip.
Yesterday
High -- | Low -- °F
Precip. -- in
Pressure 30.01 in
Visibility 5.0 miles
Clouds Clear
Dew Point 69 °F
Humidity 100%
Rainfall 0.00 in
Snow Depth Not available.
6:30 AM 8:04 PM
Waning Crescent, 25% visible
METAR KCHO 170653Z AUTO 00000KT 5SM BR CLR 22/21 A3003 RMK AO2 SLP161 T02220211 TSNO
Pressure 30.01 in
Visibility 5.0 miles
Clouds Clear
Dew Point 69 °F
Humidity 100%
Rainfall 0.00 in
Snow Depth Not available.
6:30 AM 8:04 PM
Waning Crescent, 25% visible
METAR KCHO 170653Z AUTO 00000KT 5SM BR CLR 22/21 A3003 RMK AO2 SLP161 T02220211 TSNO

Get Severe Weather Alerts

Thanks for signing up!

Be on the lookout for a verification email in your inbox.

You'll start receiving the daily forecast at 6 AM.

×

10-Day Weather Forecast

Almanac

Astronomy

Aug. 17, 2017 Rise Set
Actual Time
Civil Twilight
Nautical Twilight
Astronomical Twilight
Moon
Length of Visible Light
Length of Day
Tomorrow will be .
, % of the Moon is Illuminated

Today's Extremes

State Highs State Lows

Community

WunderPhotos

Category 6

Welcome to Category 6. This is the collective home for Weather Underground's featured writeups by Dr. Jeff Masters (right), Bob Henson (left), Chris Burt, and other regular contributors.

Nearby

Air Quality

  Air Quality AQ Index Pollutant
Not available.

Snow Depth

Station Depth Elevation

Earthquake Activity

City Distance Mag. Time & Date
Minimum magnitude displayed is 2.5.

Coastal Water Temperatures

Place Temperature

Stations

Nearby Weather Stations

Station Location Temp. Windchill Dew Point Humidity Wind Precip. Elev Updated Type
                   

Watches & Warnings

There are currently no watches in effect.